createdAt,value
2023-04-18T00:01:01.858Z,7.31
2023-04-18T00:03:32.590Z,7.26
2023-04-18T00:06:03.555Z,7.21
2023-04-18T00:08:34.231Z,7.22
2023-04-18T00:11:04.744Z,7.21
2023-04-18T00:13:35.644Z,7.20
2023-04-18T00:16:07.982Z,7.18
2023-04-18T00:18:39.976Z,7.15
2023-04-18T00:21:10.412Z,7.17
2023-04-18T00:23:41.682Z,7.20
2023-04-18T00:26:12.226Z,7.20
2023-04-18T00:28:42.990Z,7.16
2023-04-18T00:31:13.544Z,7.12
2023-04-18T00:33:44.386Z,7.10
2023-04-18T00:36:15.099Z,7.11
2023-04-18T00:38:45.545Z,7.11
2023-04-18T00:41:16.559Z,7.06
2023-04-18T00:43:47.525Z,7.06
2023-04-18T00:46:18.009Z,7.04
2023-04-18T00:48:48.725Z,7.04
2023-04-18T00:51:19.378Z,7.04
2023-04-18T00:53:49.897Z,7.03
2023-04-18T00:56:20.420Z,7.03
2023-04-18T00:58:51.252Z,7.01
2023-04-18T01:01:22.065Z,7.01
2023-04-18T01:03:52.707Z,7.01
2023-04-18T01:06:23.756Z,7.03
2023-04-18T01:08:54.933Z,7.02
2023-04-18T01:11:25.650Z,6.99
2023-04-18T01:14:03.608Z,6.93
2023-04-18T01:16:33.629Z,6.90
2023-04-18T01:19:05.715Z,6.83
2023-04-18T01:21:37.361Z,6.81
2023-04-18T01:24:12.727Z,6.85
2023-04-18T01:26:45.266Z,6.86
2023-04-18T01:29:16.000Z,6.84
2023-04-18T01:31:46.503Z,6.80
2023-04-18T01:34:17.748Z,6.79
2023-04-18T01:36:48.852Z,6.77
2023-04-18T01:39:19.350Z,6.78
2023-04-18T01:41:49.743Z,6.80
2023-04-18T01:44:20.520Z,6.84
2023-04-18T01:46:51.838Z,6.88
2023-04-18T01:49:22.622Z,6.89
2023-04-18T01:51:53.087Z,6.88
2023-04-18T01:54:23.486Z,6.86
2023-04-18T01:56:54.456Z,6.87
2023-04-18T01:59:24.867Z,6.85
2023-04-18T02:01:55.688Z,6.86
2023-04-18T02:04:26.451Z,6.86
2023-04-18T02:06:57.724Z,6.87
2023-04-18T02:09:28.501Z,6.84
2023-04-18T02:11:59.453Z,6.81
2023-04-18T02:14:32.246Z,6.81
2023-04-18T02:17:02.881Z,6.79
2023-04-18T02:19:33.484Z,6.78
2023-04-18T02:22:04.214Z,6.79
2023-04-18T02:24:34.921Z,6.79
2023-04-18T02:27:05.713Z,6.79
2023-04-18T02:29:36.436Z,6.78
2023-04-18T02:32:08.064Z,6.77
2023-04-18T02:34:39.356Z,6.74
2023-04-18T02:37:09.779Z,6.74
2023-04-18T02:39:40.243Z,6.75
2023-04-18T02:42:10.636Z,6.75
2023-04-18T02:44:41.422Z,6.74
2023-04-18T02:47:11.780Z,6.72
2023-04-18T02:49:42.222Z,6.71
2023-04-18T02:52:12.976Z,6.69
2023-04-18T02:54:43.652Z,6.67
2023-04-18T02:57:14.498Z,6.69
2023-04-18T02:59:45.013Z,6.67
2023-04-18T03:02:15.814Z,6.67
2023-04-18T03:04:46.470Z,6.65
2023-04-18T03:07:16.976Z,6.63
2023-04-18T03:09:47.372Z,6.62
2023-04-18T03:12:17.881Z,6.61
2023-04-18T03:14:48.392Z,6.62
2023-04-18T03:17:19.138Z,6.62
2023-04-18T03:19:49.828Z,6.62
2023-04-18T03:22:20.255Z,6.60
2023-04-18T03:24:51.036Z,6.57
2023-04-18T03:27:21.598Z,6.55
2023-04-18T03:29:52.004Z,6.53
2023-04-18T03:32:22.555Z,6.51
2023-04-18T03:34:54.151Z,6.51
2023-04-18T03:37:24.782Z,6.52
2023-04-18T03:39:55.222Z,6.52
2023-04-18T03:42:25.978Z,6.52
2023-04-18T03:44:56.900Z,6.54
2023-04-18T03:47:27.439Z,6.55
2023-04-18T03:49:57.929Z,6.55
2023-04-18T03:52:29.837Z,6.57
2023-04-18T03:55:00.846Z,6.56
2023-04-18T03:57:31.856Z,6.56
2023-04-18T04:00:03.493Z,6.56
2023-04-18T04:02:34.450Z,6.56
2023-04-18T04:05:05.796Z,6.56
2023-04-18T04:07:36.258Z,6.56
2023-04-18T04:10:07.794Z,6.57
2023-04-18T04:12:38.543Z,6.55
2023-04-18T04:15:10.628Z,6.55
2023-04-18T04:17:41.729Z,6.55
2023-04-18T04:20:13.616Z,6.56
2023-04-18T04:22:44.100Z,6.56
2023-04-18T04:25:15.216Z,6.58
2023-04-18T04:27:46.025Z,6.57
2023-04-18T04:30:17.000Z,6.59
2023-04-18T04:32:47.694Z,6.61
2023-04-18T04:35:18.808Z,6.60
2023-04-18T04:37:50.682Z,6.60
2023-04-18T04:40:22.961Z,6.57
2023-04-18T04:42:54.397Z,6.55
2023-04-18T04:45:25.032Z,6.53
2023-04-18T04:47:55.702Z,6.52
2023-04-18T04:50:26.282Z,6.52
2023-04-18T04:52:56.955Z,6.50
2023-04-18T04:55:27.438Z,6.47
2023-04-18T04:57:58.175Z,6.47
2023-04-18T05:00:28.806Z,6.47
2023-04-18T05:02:59.841Z,6.45
2023-04-18T05:05:30.963Z,6.46
2023-04-18T05:08:01.394Z,6.47
2023-04-18T05:10:32.492Z,6.47
2023-04-18T05:13:03.388Z,6.48
2023-04-18T05:15:33.929Z,6.48
2023-04-18T05:18:04.824Z,6.46
2023-04-18T05:20:35.361Z,6.46
2023-04-18T05:23:05.956Z,6.47
2023-04-18T05:25:36.748Z,6.50
2023-04-18T05:28:08.422Z,6.52
2023-04-18T05:30:38.960Z,6.51
2023-04-18T05:33:10.860Z,6.53
2023-04-18T05:35:41.323Z,6.52
2023-04-18T05:38:12.121Z,6.48
2023-04-18T05:40:43.389Z,6.47
2023-04-18T05:43:13.963Z,6.47
2023-04-18T05:45:44.376Z,6.46
2023-04-18T05:48:14.782Z,6.45
2023-04-18T05:50:45.283Z,6.45
2023-04-18T05:53:15.970Z,6.44
2023-04-18T05:55:48.740Z,6.47
2023-04-18T05:58:19.306Z,6.50
2023-04-18T06:00:49.910Z,6.51
2023-04-18T06:03:20.769Z,6.52
2023-04-18T06:05:51.763Z,6.51
2023-04-18T06:08:22.196Z,6.54
2023-04-18T06:10:52.743Z,6.59
2023-04-18T06:13:23.421Z,6.66
2023-04-18T06:15:53.960Z,6.71
2023-04-18T06:18:24.590Z,6.75
2023-04-18T06:20:55.236Z,6.81
2023-04-18T06:23:25.667Z,6.85
2023-04-18T06:25:56.581Z,6.88
2023-04-18T06:28:27.131Z,6.91
2023-04-18T06:30:57.559Z,6.93
2023-04-18T06:33:28.638Z,6.94
2023-04-18T06:35:59.156Z,6.94
2023-04-18T06:38:29.895Z,6.91
2023-04-18T06:41:00.436Z,6.90
2023-04-18T06:43:31.240Z,6.91
2023-04-18T06:46:02.052Z,6.91
2023-04-18T06:48:32.851Z,6.92
2023-04-18T06:51:03.228Z,6.95
2023-04-18T06:53:33.641Z,7.01
2023-04-18T06:56:05.259Z,7.05
2023-04-18T06:58:35.956Z,7.09
2023-04-18T07:01:06.515Z,7.14
2023-04-18T07:03:37.291Z,7.19
2023-04-18T07:06:10.555Z,7.21
2023-04-18T07:08:41.876Z,7.21
2023-04-18T07:11:13.213Z,7.18
2023-04-18T07:13:43.541Z,7.18
2023-04-18T07:16:14.178Z,7.21
2023-04-18T07:18:45.115Z,7.24
2023-04-18T07:21:15.655Z,7.27
2023-04-18T07:23:46.349Z,7.34
2023-04-18T07:26:17.087Z,7.41
2023-04-18T07:28:47.556Z,7.44
2023-04-18T07:31:19.463Z,7.47
2023-04-18T07:33:49.960Z,7.50
2023-04-18T07:36:20.513Z,7.54
2023-04-18T07:38:51.765Z,7.60
2023-04-18T07:41:22.187Z,7.63
2023-04-18T07:43:53.111Z,7.65
2023-04-18T07:46:23.851Z,7.68
2023-04-18T07:48:54.696Z,7.76
2023-04-18T07:51:31.077Z,7.84
2023-04-18T07:54:02.227Z,7.95
2023-04-18T07:56:32.783Z,8.07
2023-04-18T07:59:03.178Z,8.20
2023-04-18T08:01:33.694Z,8.30
2023-04-18T08:04:04.577Z,8.40
2023-04-18T08:06:35.714Z,8.51
2023-04-18T08:09:06.476Z,8.64
2023-04-18T08:11:37.220Z,8.76
2023-04-18T08:14:07.966Z,8.80
2023-04-18T08:16:38.751Z,8.84
2023-04-18T08:19:09.216Z,8.88
2023-04-18T08:21:40.059Z,8.94
2023-04-18T08:24:11.172Z,9.03
2023-04-18T08:26:42.139Z,9.10
2023-04-18T08:29:13.337Z,9.18
2023-04-18T08:31:44.800Z,9.28
2023-04-18T08:34:15.272Z,9.38
2023-04-18T08:36:46.789Z,9.46
2023-04-18T08:39:18.044Z,9.56
2023-04-18T08:41:54.486Z,9.67
2023-04-18T08:44:24.898Z,9.83
2023-04-18T08:46:55.874Z,9.97
2023-04-18T08:49:26.780Z,10.00
2023-04-18T08:51:58.497Z,10.01
2023-04-18T08:54:30.409Z,10.04
2023-04-18T08:57:08.777Z,10.10
2023-04-18T08:59:40.409Z,10.17
2023-04-18T09:02:11.721Z,10.25
2023-04-18T09:04:44.927Z,10.32
2023-04-18T09:07:18.218Z,10.40
2023-04-18T09:09:50.309Z,10.43
2023-04-18T09:12:22.567Z,10.45
2023-04-18T09:14:56.538Z,10.43
2023-04-18T09:17:38.007Z,10.46
2023-04-18T09:20:11.157Z,10.49
2023-04-18T09:22:50.486Z,10.50
2023-04-18T09:25:34.888Z,10.53
2023-04-18T09:28:06.479Z,10.53
2023-04-18T09:30:39.590Z,10.53
2023-04-18T09:33:12.688Z,10.53
2023-04-18T09:35:43.450Z,10.57
2023-04-18T09:38:13.929Z,10.55
2023-04-18T09:40:44.278Z,10.55
2023-04-18T09:43:23.733Z,10.60
2023-04-18T09:45:54.503Z,10.67
2023-04-18T09:48:24.885Z,10.70
2023-04-18T09:50:56.963Z,10.73
2023-04-18T09:53:27.981Z,10.71
2023-04-18T09:55:58.577Z,10.71
2023-04-18T09:58:33.680Z,10.71
2023-04-18T10:01:06.292Z,10.75
2023-04-18T10:03:42.608Z,10.77
2023-04-18T10:06:16.928Z,10.79
2023-04-18T10:08:48.927Z,10.76
2023-04-18T10:11:20.356Z,10.71
2023-04-18T10:13:54.529Z,10.66
2023-04-18T10:16:26.616Z,10.59
2023-04-18T10:18:58.291Z,10.55
2023-04-18T10:21:31.394Z,10.55
2023-04-18T10:24:01.942Z,10.57
2023-04-18T10:26:50.306Z,10.59
2023-04-18T10:29:46.497Z,10.51
2023-04-18T10:32:17.406Z,10.42
2023-04-18T10:34:49.350Z,10.43
2023-04-18T10:37:19.814Z,10.49
2023-04-18T10:40:00.332Z,10.51
2023-04-18T10:43:00.378Z,10.55
2023-04-18T10:45:36.173Z,10.60
2023-04-18T10:48:29.809Z,10.61
2023-04-18T10:51:20.804Z,10.69
2023-04-18T10:53:57.221Z,10.74
2023-04-18T10:56:28.900Z,10.86
2023-04-18T10:59:04.408Z,10.96
2023-04-18T11:01:38.031Z,11.03
2023-04-18T11:04:15.512Z,11.05
2023-04-18T11:06:51.515Z,11.06
2023-04-18T11:09:22.478Z,11.06
2023-04-18T11:12:07.576Z,11.07
2023-04-18T11:14:48.700Z,11.10
2023-04-18T11:17:20.584Z,11.16
2023-04-18T11:19:51.562Z,11.22
2023-04-18T11:22:22.030Z,11.25
2023-04-18T11:24:52.863Z,11.23
2023-04-18T11:27:27.750Z,11.21
2023-04-18T11:29:58.405Z,11.25
2023-04-18T11:32:29.236Z,11.32
2023-04-18T11:34:59.812Z,11.44
2023-04-18T11:37:30.682Z,11.54
2023-04-18T11:40:01.342Z,11.61
2023-04-18T11:42:35.280Z,11.61
2023-04-18T11:45:09.634Z,11.58
2023-04-18T11:47:41.797Z,11.59
2023-04-18T11:50:13.819Z,11.64
2023-04-18T11:52:50.526Z,11.68
2023-04-18T11:55:23.841Z,11.70
2023-04-18T11:57:55.354Z,11.71
2023-04-18T12:00:38.416Z,11.69
2023-04-18T12:03:16.155Z,11.68
2023-04-18T12:05:47.554Z,11.70
2023-04-18T12:08:21.785Z,11.76
2023-04-18T12:10:54.149Z,11.86
2023-04-18T12:13:32.282Z,11.87
2023-04-18T12:16:04.143Z,11.84
2023-04-18T12:18:34.649Z,11.84
2023-04-18T12:21:07.525Z,11.89
2023-04-18T12:23:40.054Z,11.96
2023-04-18T12:26:15.048Z,12.03
2023-04-18T12:28:51.123Z,12.09
2023-04-18T12:31:22.607Z,12.15
2023-04-18T12:33:54.383Z,12.19
2023-04-18T12:36:25.281Z,12.24
2023-04-18T12:38:55.834Z,12.27
2023-04-18T12:41:26.544Z,12.33
2023-04-18T12:43:56.983Z,12.46
2023-04-18T12:46:28.389Z,12.60
2023-04-18T12:48:58.854Z,12.71
2023-04-18T12:51:29.322Z,12.83
2023-04-18T12:53:59.849Z,12.96
2023-04-18T12:56:30.382Z,13.07
2023-04-18T12:59:01.137Z,13.16
2023-04-18T13:01:31.626Z,13.19
2023-04-18T13:04:11.825Z,13.12
2023-04-18T13:06:43.773Z,12.99
2023-04-18T13:09:16.958Z,12.89
2023-04-18T13:11:49.547Z,12.88
2023-04-18T13:14:21.189Z,12.86
2023-04-18T13:16:51.867Z,12.83
2023-04-18T13:19:22.500Z,12.82
2023-04-18T13:21:53.268Z,12.78
2023-04-18T13:24:23.754Z,12.79
2023-04-18T13:26:54.339Z,12.87
2023-04-18T13:29:25.042Z,12.97
2023-04-18T13:31:55.543Z,13.03
2023-04-18T13:34:26.090Z,13.06
2023-04-18T13:36:58.976Z,13.11
2023-04-18T13:39:29.668Z,13.19
2023-04-18T13:42:02.618Z,13.19
2023-04-18T13:44:34.114Z,13.11
2023-04-18T13:47:05.393Z,13.05
2023-04-18T13:49:36.363Z,13.01
2023-04-18T13:52:07.557Z,13.02
2023-04-18T13:54:38.333Z,13.04
2023-04-18T13:57:11.576Z,13.01
2023-04-18T13:59:42.179Z,12.98
2023-04-18T14:02:13.217Z,12.96
2023-04-18T14:04:43.908Z,12.93
2023-04-18T14:07:14.467Z,12.94
2023-04-18T14:09:45.001Z,12.99
2023-04-18T14:12:15.523Z,13.05
2023-04-18T14:14:46.007Z,13.08
2023-04-18T14:17:16.533Z,13.14
2023-04-18T14:19:48.005Z,13.20
2023-04-18T14:22:18.418Z,13.22
2023-04-18T14:24:49.149Z,13.23
2023-04-18T14:27:19.705Z,13.21
2023-04-18T14:29:50.576Z,13.19
2023-04-18T14:32:21.138Z,13.15
2023-04-18T14:34:52.466Z,13.08
2023-04-18T14:37:23.050Z,13.00
2023-04-18T14:39:53.619Z,12.94
2023-04-18T14:42:24.214Z,12.91
2023-04-18T14:44:55.325Z,12.90
2023-04-18T14:47:31.218Z,12.89
2023-04-18T14:50:01.971Z,12.86
2023-04-18T14:52:32.821Z,12.83
2023-04-18T14:55:04.156Z,12.79
2023-04-18T14:57:35.495Z,12.77
2023-04-18T15:00:08.895Z,12.77
2023-04-18T15:02:39.690Z,12.77
2023-04-18T15:05:11.874Z,12.77
2023-04-18T15:07:43.485Z,12.78
2023-04-18T15:10:15.159Z,12.79
2023-04-18T15:12:46.751Z,12.77
2023-04-18T15:15:17.245Z,12.76
2023-04-18T15:17:47.751Z,12.78
2023-04-18T15:20:18.248Z,12.81
2023-04-18T15:22:48.646Z,12.86
2023-04-18T15:25:19.463Z,12.89
2023-04-18T15:27:50.250Z,12.90
2023-04-18T15:30:20.861Z,12.91
2023-04-18T15:32:52.130Z,12.93
2023-04-18T15:35:22.844Z,12.94
2023-04-18T15:37:54.027Z,12.96
2023-04-18T15:40:24.842Z,12.98
2023-04-18T15:42:57.656Z,12.97
2023-04-18T15:45:28.217Z,12.94
2023-04-18T15:47:58.721Z,12.91
2023-04-18T15:50:30.251Z,12.89
2023-04-18T15:53:02.755Z,12.88
2023-04-18T15:55:34.299Z,12.88
2023-04-18T15:58:05.033Z,12.89
2023-04-18T16:00:35.717Z,12.91
2023-04-18T16:03:09.832Z,12.92
2023-04-18T16:05:40.323Z,12.91
2023-04-18T16:08:11.480Z,12.90
2023-04-18T16:10:41.969Z,12.90
2023-04-18T16:13:12.491Z,12.90
2023-04-18T16:15:43.122Z,12.88
2023-04-18T16:18:14.091Z,12.85
2023-04-18T16:20:45.045Z,12.84
2023-04-18T16:23:15.566Z,12.84
2023-04-18T16:25:46.028Z,12.85
2023-04-18T16:28:16.357Z,12.85
2023-04-18T16:30:47.171Z,12.84
2023-04-18T16:33:20.645Z,12.81
2023-04-18T16:35:51.209Z,12.80
2023-04-18T16:38:23.424Z,12.80
2023-04-18T16:40:55.072Z,12.81
2023-04-18T16:43:26.831Z,12.81
2023-04-18T16:45:57.929Z,12.81
2023-04-18T16:48:28.917Z,12.78
2023-04-18T16:50:59.425Z,12.74
2023-04-18T16:53:30.134Z,12.70
2023-04-18T16:56:00.859Z,12.66
2023-04-18T16:58:31.272Z,12.63
2023-04-18T17:01:03.684Z,12.62
2023-04-18T17:03:34.518Z,12.62
2023-04-18T17:06:05.760Z,12.62
2023-04-18T17:08:36.571Z,12.61
2023-04-18T17:11:07.529Z,12.61
2023-04-18T17:13:37.974Z,12.61
2023-04-18T17:16:09.825Z,12.59
2023-04-18T17:18:41.572Z,12.58
2023-04-18T17:21:12.538Z,12.57
2023-04-18T17:23:43.658Z,12.59
2023-04-18T17:26:14.061Z,12.58
2023-04-18T17:28:45.056Z,12.57
2023-04-18T17:31:17.183Z,12.55
2023-04-18T17:33:50.569Z,12.54
2023-04-18T17:36:21.223Z,12.52
2023-04-18T17:38:51.873Z,12.50
2023-04-18T17:41:23.424Z,12.49
2023-04-18T17:43:54.085Z,12.47
2023-04-18T17:46:26.789Z,12.45
2023-04-18T17:48:59.894Z,12.44
2023-04-18T17:51:32.868Z,12.43
2023-04-18T17:54:11.433Z,12.40
2023-04-18T17:56:46.232Z,12.38
2023-04-18T17:59:19.212Z,12.36
2023-04-18T18:01:54.077Z,12.34
2023-04-18T18:04:28.499Z,12.32
2023-04-18T18:07:02.075Z,12.31
2023-04-18T18:09:35.518Z,12.30
2023-04-18T18:12:12.581Z,12.30
2023-04-18T18:14:45.253Z,12.27
2023-04-18T18:17:18.296Z,12.26
2023-04-18T18:19:50.861Z,12.24
2023-04-18T18:22:26.545Z,12.22
2023-04-18T18:24:59.673Z,12.20
2023-04-18T18:27:33.979Z,12.18
2023-04-18T18:30:07.481Z,12.17
2023-04-18T18:32:40.398Z,12.15
2023-04-18T18:35:17.464Z,12.13
2023-04-18T18:37:50.417Z,12.12
2023-04-18T18:40:23.401Z,12.09
2023-04-18T18:43:00.782Z,12.07
2023-04-18T18:45:33.680Z,12.04
2023-04-18T18:48:10.301Z,12.02
2023-04-18T18:50:43.163Z,11.99
2023-04-18T18:53:19.579Z,11.97
2023-04-18T18:55:52.449Z,11.94
2023-04-18T18:58:25.381Z,11.91
2023-04-18T19:00:59.212Z,11.88
2023-04-18T19:03:32.156Z,11.85
2023-04-18T19:06:08.207Z,11.83
2023-04-18T19:08:40.719Z,11.79
2023-04-18T19:11:14.240Z,11.76
2023-04-18T19:13:47.279Z,11.74
2023-04-18T19:16:21.596Z,11.72
2023-04-18T19:18:54.976Z,11.70
2023-04-18T19:21:29.422Z,11.67
2023-04-18T19:24:02.000Z,11.64
2023-04-18T19:26:34.747Z,11.61
2023-04-18T19:29:11.093Z,11.60
2023-04-18T19:31:44.217Z,11.59
2023-04-18T19:34:19.345Z,11.57
2023-04-18T19:36:51.804Z,11.55
2023-04-18T19:39:24.527Z,11.53
2023-04-18T19:41:57.410Z,11.51
2023-04-18T19:44:32.437Z,11.49
2023-04-18T19:47:05.004Z,11.47
2023-04-18T19:49:37.195Z,11.45
2023-04-18T19:52:09.454Z,11.43
2023-04-18T19:54:43.600Z,11.41
2023-04-18T19:57:16.176Z,11.39
2023-04-18T19:59:48.699Z,11.36
2023-04-18T20:02:21.002Z,11.34
2023-04-18T20:04:53.398Z,11.33
2023-04-18T20:07:26.357Z,11.30
2023-04-18T20:09:58.705Z,11.28
2023-04-18T20:12:31.030Z,11.26
2023-04-18T20:15:03.864Z,11.23
2023-04-18T20:17:36.523Z,11.21
2023-04-18T20:20:12.534Z,11.19
2023-04-18T20:22:50.621Z,11.16
2023-04-18T20:25:23.097Z,11.14
2023-04-18T20:27:55.514Z,11.11
2023-04-18T20:30:28.714Z,11.08
2023-04-18T20:33:00.942Z,11.05
2023-04-18T20:35:33.233Z,11.04
2023-04-18T20:38:07.641Z,11.00
2023-04-18T20:40:43.158Z,10.98
2023-04-18T20:43:17.829Z,10.96
2023-04-18T20:45:51.662Z,10.94
2023-04-18T20:48:24.081Z,10.91
2023-04-18T20:50:56.280Z,10.89
2023-04-18T20:53:29.560Z,10.88
2023-04-18T20:56:02.488Z,10.86
2023-04-18T20:58:35.292Z,10.82
2023-04-18T21:01:07.464Z,10.79
2023-04-18T21:03:40.494Z,10.75
2023-04-18T21:06:14.105Z,10.72
2023-04-18T21:08:46.843Z,10.69
2023-04-18T21:11:19.037Z,10.65
2023-04-18T21:13:51.711Z,10.64
2023-04-18T21:16:24.436Z,10.61
2023-04-18T21:18:57.700Z,10.58
2023-04-18T21:21:30.642Z,10.55
2023-04-18T21:24:03.285Z,10.54
2023-04-18T21:26:36.609Z,10.52
2023-04-18T21:29:10.033Z,10.48
2023-04-18T21:31:42.496Z,10.44
2023-04-18T21:34:15.543Z,10.41
2023-04-18T21:36:48.090Z,10.38
2023-04-18T21:39:20.413Z,10.35
2023-04-18T21:41:52.900Z,10.32
2023-04-18T21:44:25.759Z,10.29
2023-04-18T21:46:58.042Z,10.27
2023-04-18T21:49:30.960Z,10.24
2023-04-18T21:52:03.802Z,10.23
2023-04-18T21:54:36.116Z,10.21
2023-04-18T21:57:08.669Z,10.19
2023-04-18T21:59:42.603Z,10.17
2023-04-18T22:02:15.358Z,10.15
2023-04-18T22:04:48.488Z,10.12
2023-04-18T22:07:20.929Z,10.12
2023-04-18T22:09:53.077Z,10.10
2023-04-18T22:12:25.296Z,10.09
2023-04-18T22:14:57.875Z,10.07
2023-04-18T22:17:30.508Z,10.03
2023-04-18T22:20:05.057Z,10.03
2023-04-18T22:22:38.010Z,10.01
2023-04-18T22:25:16.434Z,9.99
2023-04-18T22:27:48.862Z,9.97
2023-04-18T22:30:21.448Z,9.96
2023-04-18T22:32:55.421Z,9.93
2023-04-18T22:35:28.129Z,9.89
2023-04-18T22:38:01.793Z,9.86
2023-04-18T22:40:35.056Z,9.81
2023-04-18T22:43:07.716Z,9.78
2023-04-18T22:45:40.224Z,9.75
2023-04-18T22:48:13.689Z,9.71
2023-04-18T22:50:46.802Z,9.68
2023-04-18T22:53:20.690Z,9.64
2023-04-18T22:55:53.552Z,9.62
2023-04-18T22:58:27.717Z,9.58
2023-04-18T23:01:01.683Z,9.56
2023-04-18T23:03:35.819Z,9.53
2023-04-18T23:06:10.899Z,9.48
2023-04-18T23:08:44.707Z,9.45
2023-04-18T23:11:17.587Z,9.43
2023-04-18T23:13:50.049Z,9.42
2023-04-18T23:16:23.642Z,9.39
2023-04-18T23:18:55.832Z,9.36
2023-04-18T23:21:30.028Z,9.34
2023-04-18T23:24:02.008Z,9.32
2023-04-18T23:26:34.524Z,9.30
2023-04-18T23:29:07.213Z,9.26
2023-04-18T23:31:40.263Z,9.21
2023-04-18T23:34:13.858Z,9.16
2023-04-18T23:36:46.119Z,9.12
2023-04-18T23:39:19.180Z,9.09
2023-04-18T23:41:51.842Z,9.06
2023-04-18T23:44:24.540Z,9.02
2023-04-18T23:46:57.384Z,9.00
2023-04-18T23:49:29.877Z,8.97
2023-04-18T23:52:02.214Z,8.93
2023-04-18T23:54:34.501Z,8.88
2023-04-18T23:57:06.779Z,8.82
2023-04-18T23:59:39.234Z,8.75
